createdAt,value
2023-06-10T00:05:10.297Z,52.6
2023-06-10T00:25:10.010Z,52.9
2023-06-10T00:30:09.788Z,53.0
2023-06-10T00:35:10.059Z,52.9
2023-06-10T00:40:09.794Z,53.3
2023-06-10T00:45:10.214Z,53.8
2023-06-10T00:55:10.251Z,53.3
2023-06-10T01:00:09.881Z,53.8
2023-06-10T01:10:09.790Z,52.6
2023-06-10T01:15:10.150Z,53.2
2023-06-10T01:20:09.807Z,52.2
2023-06-10T01:25:10.040Z,53.0
2023-06-10T01:35:10.100Z,53.0
2023-06-10T01:45:10.053Z,53.0
2023-06-10T01:50:09.829Z,52.8
2023-06-10T01:55:10.139Z,52.4
2023-06-10T02:00:09.812Z,52.3
2023-06-10T02:10:09.829Z,53.8
2023-06-10T02:15:09.991Z,53.2
2023-06-10T02:20:09.825Z,53.0
2023-06-10T02:25:10.102Z,52.9
2023-06-10T02:30:09.836Z,54.4
2023-06-10T02:40:09.877Z,53.8
2023-06-10T02:45:10.302Z,54.4
2023-06-10T02:50:09.849Z,55.8
2023-06-10T03:00:09.846Z,55.6
2023-06-10T03:05:10.125Z,55.9
2023-06-10T03:10:09.850Z,56.6
2023-06-10T03:15:10.057Z,56.7
2023-06-10T03:30:09.882Z,57.8
2023-06-10T03:35:10.144Z,59.0
2023-06-10T03:40:09.946Z,59.5
2023-06-10T03:55:10.084Z,59.4
2023-06-10T04:00:09.888Z,58.7
2023-06-10T04:05:10.193Z,59.3
2023-06-10T04:10:09.895Z,59.3
2023-06-10T04:15:10.465Z,59.7
2023-06-10T04:20:09.902Z,61.3
2023-06-10T04:25:10.114Z,60.6
2023-06-10T04:30:09.890Z,60.6
2023-06-10T04:35:10.112Z,62.3
2023-06-10T04:45:10.187Z,62.1
2023-06-10T04:55:10.193Z,61.7
2023-06-10T05:00:09.912Z,60.7
2023-06-10T05:20:09.903Z,62.3
2023-06-10T05:30:11.053Z,60.5
2023-06-10T05:35:10.153Z,60.5
2023-06-10T05:40:09.927Z,60.3
2023-06-10T05:45:10.098Z,63.3
2023-06-10T05:50:09.960Z,61.9
2023-06-10T05:55:10.163Z,59.9
2023-06-10T06:00:09.925Z,62.4
2023-06-10T06:10:09.963Z,62.2
2023-06-10T06:15:10.124Z,60.1
2023-06-10T06:20:09.953Z,59.2
2023-06-10T06:25:10.266Z,59.1
2023-06-10T06:30:09.949Z,57.8
2023-06-10T06:40:09.970Z,57.6
2023-06-10T06:45:10.196Z,55.8
2023-06-10T06:50:09.939Z,55.3
2023-06-10T06:55:10.235Z,56.1
2023-06-10T07:00:09.941Z,55.1
2023-06-10T07:05:10.249Z,55.4
2023-06-10T07:10:09.935Z,53.9
2023-06-10T07:15:10.342Z,52.8
2023-06-10T07:20:09.932Z,52.2
2023-06-10T07:25:10.571Z,51.3
2023-06-10T07:30:09.970Z,51.3
2023-06-10T07:35:10.374Z,49.8
2023-06-10T07:40:09.984Z,50.7
2023-06-10T07:45:10.257Z,49.3
2023-06-10T07:55:10.152Z,48.2
2023-06-10T08:00:09.969Z,47.2
2023-06-10T08:05:10.329Z,46.1
2023-06-10T08:10:09.994Z,46.5
2023-06-10T08:20:10.054Z,45.1
2023-06-10T08:25:10.164Z,45.1
2023-06-10T08:30:09.990Z,44.7
2023-06-10T08:35:10.366Z,44.7
2023-06-10T08:40:09.995Z,43.8
2023-06-10T08:45:11.457Z,43.1
2023-06-10T08:50:12.716Z,43.1
2023-06-10T08:55:10.183Z,42.4
2023-06-10T09:00:10.179Z,41.8
2023-06-10T09:05:09.998Z,42.2
2023-06-10T09:10:10.260Z,42.3
2023-06-10T09:15:09.982Z,40.8
2023-06-10T09:20:11.216Z,40.9
2023-06-10T09:25:10.187Z,39.8
2023-06-10T09:30:10.268Z,39.8
2023-06-10T09:35:10.009Z,39.6
2023-06-10T09:40:10.591Z,38.6
2023-06-10T09:45:10.008Z,39.2
2023-06-10T09:50:11.361Z,38.6
2023-06-10T09:55:10.018Z,37.9
2023-06-10T10:05:10.298Z,38.0
2023-06-10T10:10:10.125Z,36.4
2023-06-10T10:15:10.341Z,34.2
2023-06-10T10:20:10.077Z,33.7
2023-06-10T10:25:10.250Z,30.0
2023-06-10T10:30:10.110Z,27.5
2023-06-10T10:35:10.294Z,27.4
2023-06-10T10:40:10.079Z,25.7
2023-06-10T10:45:10.077Z,24.2
2023-06-10T10:50:12.493Z,24.7
2023-06-10T10:55:10.338Z,22.9
2023-06-10T11:00:10.119Z,23.7
2023-06-10T11:10:10.061Z,21.5
2023-06-10T11:15:10.422Z,23.3
2023-06-10T11:20:14.228Z,20.0
2023-06-10T11:25:10.347Z,20.6
2023-06-10T11:30:10.074Z,21.8
2023-06-10T11:35:10.518Z,20.0
2023-06-10T11:40:10.093Z,19.3
2023-06-10T11:45:10.326Z,20.5
2023-06-10T11:50:10.090Z,19.7
2023-06-10T11:55:11.469Z,19.2
2023-06-10T12:00:10.095Z,18.9
2023-06-10T12:05:10.332Z,20.1
2023-06-10T12:10:26.298Z,18.7
2023-06-10T12:15:10.356Z,18.8
2023-06-10T12:20:10.123Z,19.0
2023-06-10T12:25:14.587Z,20.3
2023-06-10T12:30:10.131Z,20.3
2023-06-10T12:35:10.384Z,20.1
2023-06-10T12:40:10.422Z,19.7
2023-06-10T12:45:10.429Z,19.0
2023-06-10T12:50:11.488Z,19.8
2023-06-10T12:55:10.417Z,19.8
2023-06-10T13:00:10.199Z,18.4
2023-06-10T13:05:11.943Z,17.7
2023-06-10T13:10:10.113Z,18.1
2023-06-10T13:15:10.321Z,19.9
2023-06-10T13:20:10.165Z,18.8
2023-06-10T13:25:10.448Z,17.1
2023-06-10T13:30:10.136Z,18.1
2023-06-10T13:35:10.402Z,18.1
2023-06-10T13:40:10.145Z,18.0
2023-06-10T13:45:10.432Z,17.4
2023-06-10T13:50:10.140Z,18.7
2023-06-10T13:55:10.669Z,17.1
2023-06-10T14:00:10.132Z,18.5
2023-06-10T14:05:10.479Z,18.4
2023-06-10T14:10:10.150Z,17.7
2023-06-10T14:15:10.388Z,16.6
2023-06-10T14:20:10.141Z,18.6
2023-06-10T14:25:10.500Z,16.0
2023-06-10T14:30:10.141Z,18.0
2023-06-10T14:35:10.405Z,17.4
2023-06-10T14:40:10.206Z,17.0
2023-06-10T14:45:10.404Z,15.8
2023-06-10T14:50:10.179Z,15.7
2023-06-10T14:55:10.488Z,14.8
2023-06-10T15:00:10.214Z,16.8
2023-06-10T15:05:10.490Z,17.0
2023-06-10T15:10:10.170Z,16.7
2023-06-10T15:15:10.428Z,17.1
2023-06-10T15:20:10.169Z,18.7
2023-06-10T15:25:29.185Z,17.4
2023-06-10T15:30:10.183Z,16.5
2023-06-10T15:35:10.450Z,19.2
2023-06-10T15:40:10.214Z,17.6
2023-06-10T15:45:10.521Z,18.3
2023-06-10T15:50:10.220Z,17.7
2023-06-10T15:55:10.487Z,18.0
2023-06-10T16:00:10.224Z,17.6
2023-06-10T16:05:10.571Z,19.2
2023-06-10T16:10:10.207Z,17.1
2023-06-10T16:15:10.408Z,19.1
2023-06-10T16:20:10.221Z,19.9
2023-06-10T16:25:10.601Z,18.4
2023-06-10T16:30:10.317Z,19.2
2023-06-10T16:35:10.434Z,20.7
2023-06-10T16:45:10.415Z,20.7
2023-06-10T16:50:10.251Z,20.7
2023-06-10T16:55:10.516Z,20.5
2023-06-10T17:00:10.231Z,21.3
2023-06-10T17:05:10.751Z,20.1
2023-06-10T17:10:10.234Z,22.5
2023-06-10T17:15:10.548Z,22.2
2023-06-10T17:20:10.299Z,22.1
2023-06-10T17:25:10.543Z,21.9
2023-06-10T17:30:10.262Z,21.9
2023-06-10T17:35:10.497Z,21.8
2023-06-10T17:40:10.277Z,22.4
2023-06-10T17:45:10.557Z,24.0
2023-06-10T17:50:10.275Z,24.0
2023-06-10T17:55:10.488Z,23.6
2023-06-10T18:00:12.590Z,23.7
2023-06-10T18:05:10.865Z,23.7
2023-06-10T18:10:10.280Z,25.4
2023-06-10T18:15:10.805Z,25.3
2023-06-10T18:20:10.281Z,25.3
2023-06-10T18:25:10.479Z,25.7
2023-06-10T18:30:10.286Z,26.3
2023-06-10T18:35:10.529Z,28.7
2023-06-10T18:40:10.432Z,31.7
2023-06-10T18:45:10.436Z,31.7
2023-06-10T18:50:10.299Z,32.9
2023-06-10T18:55:10.578Z,33.8
2023-06-10T19:05:10.571Z,34.0
2023-06-10T19:10:10.280Z,34.5
2023-06-10T19:20:10.545Z,34.9
2023-06-10T19:25:10.671Z,37.1
2023-06-10T19:30:10.283Z,35.5
2023-06-10T19:35:10.588Z,37.6
2023-06-10T19:40:10.310Z,36.2
2023-06-10T19:45:10.627Z,38.8
2023-06-10T19:55:10.609Z,39.2
2023-06-10T20:00:10.327Z,37.7
2023-06-10T20:05:10.642Z,40.2
2023-06-10T20:10:10.316Z,40.2
2023-06-10T20:15:10.643Z,40.1
2023-06-10T20:20:10.311Z,41.0
2023-06-10T20:25:10.584Z,41.1
2023-06-10T20:30:10.357Z,42.2
2023-06-10T20:35:10.599Z,41.6
2023-06-10T20:40:10.328Z,43.0
2023-06-10T20:45:10.601Z,41.1
2023-06-10T20:50:10.374Z,42.6
2023-06-10T20:55:10.622Z,41.8
2023-06-10T21:00:10.355Z,43.0
2023-06-10T21:05:10.760Z,43.7
2023-06-10T21:10:10.375Z,43.7
2023-06-10T21:15:10.640Z,43.5
2023-06-10T21:20:10.408Z,44.0
2023-06-10T21:25:10.713Z,43.2
2023-06-10T21:30:10.389Z,43.3
2023-06-10T21:35:10.630Z,44.6
2023-06-10T21:40:10.402Z,44.0
2023-06-10T21:45:10.648Z,44.0
2023-06-10T21:50:10.406Z,44.4
2023-06-10T21:55:10.815Z,44.0
2023-06-10T22:00:10.386Z,44.9
2023-06-10T22:05:10.552Z,44.9
2023-06-10T22:15:10.666Z,44.3
2023-06-10T22:20:10.416Z,44.8
2023-06-10T22:25:10.691Z,45.6
2023-06-10T22:40:10.427Z,45.2
2023-06-10T22:45:10.721Z,45.8
2023-06-10T22:50:10.413Z,46.2
2023-06-10T22:55:10.633Z,45.5
2023-06-10T23:00:10.393Z,46.2
2023-06-10T23:10:10.421Z,47.0
2023-06-10T23:15:10.698Z,47.6
2023-06-10T23:25:10.698Z,48.2
2023-06-10T23:30:10.455Z,49.1
2023-06-10T23:35:10.754Z,49.1
2023-06-10T23:40:10.459Z,48.5
2023-06-10T23:45:10.659Z,49.7
2023-06-10T23:50:10.467Z,49.9
2023-06-10T23:55:10.732Z,50.1
